Time;durP1;ratioP1;P1;durP2;ratioP2;P2;SDS_P1;SDS_P2;PMS_P1;PMS_P2;Temp;Humidity;BMP_temperature;BMP_pressure;BME280_temperature;BME280_humidity;BME280_pressure;Samples;Min_cycle;Max_cycle;Signal;HPM_P1;HPM_P2
2023/12/16 00:00:08;;;;;;;0.60;0.60;;;;;;;3.95;100.00;99034.91;29394;203;64014;-57
2023/12/16 00:00:39;;;;;;;0.60;0.60;;;;;;;3.94;100.00;99032.44;29395;204;63005;-57
2023/12/16 00:01:10;;;;;;;0.60;0.60;;;;;;;3.96;100.00;99041.94;29395;213;63009;-66
2023/12/16 00:01:41;;;;;;;0.60;0.60;;;;;;;3.98;100.00;99031.84;29394;204;64009;-58
2023/12/16 00:02:13;;;;;;;0.60;0.60;;;;;;;3.99;100.00;99036.19;29394;261;64013;-63
2023/12/16 00:02:44;;;;;;;0.60;0.60;;;;;;;4.01;100.00;99036.81;29395;240;63000;-64
2023/12/16 00:03:15;;;;;;;0.60;0.60;;;;;;;4.01;100.00;99036.81;29395;205;63009;-57
2023/12/16 00:03:47;;;;;;;0.60;0.60;;;;;;;4.00;100.00;99037.84;29395;213;63004;-58
2023/12/16 00:04:18;;;;;;;0.57;0.57;;;;;;;3.99;100.00;99041.56;29395;208;63009;-57
2023/12/16 00:04:49;;;;;;;0.60;0.60;;;;;;;3.97;100.00;99040.91;29395;257;63004;-57
2023/12/16 00:05:22;;;;;;;0.60;0.60;;;;;;;3.97;100.00;99045.47;29395;214;63008;-57
2023/12/16 00:05:53;;;;;;;0.60;0.60;;;;;;;3.96;100.00;99046.50;29395;215;63004;-65
2023/12/16 00:06:24;;;;;;;0.60;0.60;;;;;;;3.96;100.00;99049.19;29395;216;63009;-66
2023/12/16 00:06:56;;;;;;;0.60;0.60;;;;;;;3.95;100.00;99050.19;29394;229;64009;-64
2023/12/16 00:07:27;;;;;;;0.60;0.60;;;;;;;3.95;100.00;99053.72;29395;197;63021;-58
2023/12/16 00:07:59;;;;;;;0.60;0.60;;;;;;;3.94;100.00;99052.06;29395;212;63005;-57
2023/12/16 00:08:31;;;;;;;0.60;0.60;;;;;;;3.95;100.00;99053.72;29395;349;63009;-57
2023/12/16 00:09:03;;;;;;;0.50;0.50;;;;;;;3.94;100.00;99062.81;29395;370;63005;-63
2023/12/16 00:09:34;;;;;;;0.60;0.60;;;;;;;3.93;100.00;99061.13;29394;199;64009;-58
2023/12/16 00:10:07;;;;;;;0.60;0.60;;;;;;;3.91;100.00;99067.72;29395;252;63004;-64
2023/12/16 00:10:38;;;;;;;0.60;0.60;;;;;;;3.88;100.00;99065.44;29395;256;63016;-57
2023/12/16 00:11:11;;;;;;;0.60;0.60;;;;;;;3.86;100.00;99065.63;29395;212;63004;-58
2023/12/16 00:11:42;;;;;;;0.50;0.50;;;;;;;3.86;100.00;99071.00;29395;354;63004;-66
2023/12/16 00:12:14;;;;;;;0.60;0.60;;;;;;;3.84;100.00;99073.06;29394;219;64009;-57
2023/12/16 00:12:45;;;;;;;0.60;0.60;;;;;;;3.85;100.00;99074.72;29395;258;63008;-58
2023/12/16 00:13:16;;;;;;;0.60;0.60;;;;;;;3.87;100.00;99066.47;29395;221;63005;-57
2023/12/16 00:13:48;;;;;;;0.60;0.60;;;;;;;3.88;100.00;99074.31;29395;244;63009;-66
2023/12/16 00:14:19;;;;;;;0.60;0.60;;;;;;;3.88;100.00;99071.63;29394;212;64009;-58
2023/12/16 00:14:51;;;;;;;0.50;0.50;;;;;;;3.89;100.00;99067.94;29395;272;63009;-57
2023/12/16 00:15:22;;;;;;;0.60;0.60;;;;;;;3.90;100.00;99066.91;29395;339;63007;-57
2023/12/16 00:15:53;;;;;;;0.60;0.60;;;;;;;3.91;100.00;99055.13;29395;207;63009;-57
2023/12/16 00:16:27;;;;;;;0.60;0.60;;;;;;;3.91;100.00;99057.81;29395;241;63005;-58
2023/12/16 00:16:59;;;;;;;0.60;0.60;;;;;;;3.90;100.00;99050.78;29395;196;63017;-64
2023/12/16 00:17:30;;;;;;;0.60;0.60;;;;;;;3.90;100.00;99053.47;29395;283;63004;-64
2023/12/16 00:18:02;;;;;;;0.60;0.60;;;;;;;3.90;100.00;99056.16;29395;270;63009;-59
2023/12/16 00:18:36;;;;;;;0.60;0.60;;;;;;;3.91;100.00;99057.81;29395;209;63004;-58
2023/12/16 00:19:07;;;;;;;0.60;0.60;;;;;;;3.91;100.00;99057.81;29395;243;63023;-64
2023/12/16 00:19:39;;;;;;;0.60;0.60;;;;;;;3.90;100.00;99063.37;29394;259;64009;-58
2023/12/16 00:20:11;;;;;;;0.60;0.60;;;;;;;3.91;100.00;99062.38;29395;223;63023;-58
2023/12/16 00:20:42;;;;;;;0.60;0.60;;;;;;;3.90;100.00;99061.53;29395;222;63005;-57
2023/12/16 00:21:13;;;;;;;0.60;0.60;;;;;;;3.89;100.00;99059.03;29395;296;63005;-64
2023/12/16 00:21:46;;;;;;;0.60;0.60;;;;;;;3.89;100.00;99065.25;29395;296;63005;-58
2023/12/16 00:22:18;;;;;;;0.60;0.60;;;;;;;3.89;100.00;99059.88;29395;224;63009;-65
2023/12/16 00:22:49;;;;;;;0.55;0.55;;;;;;;3.88;100.00;99060.91;29395;219;63005;-57
2023/12/16 00:23:23;;;;;;;0.50;0.50;;;;;;;3.87;100.00;99053.88;29395;212;63009;-57
2023/12/16 00:23:55;;;;;;;0.60;0.60;;;;;;;3.88;100.00;99054.69;29395;254;63005;-57
2023/12/16 00:24:27;;;;;;;0.57;0.57;;;;;;;3.88;100.00;99060.06;29395;229;63009;-57
2023/12/16 00:24:58;;;;;;;0.60;0.60;;;;;;;3.91;100.00;99057.81;29394;197;64009;-58
2023/12/16 00:25:29;;;;;;;0.60;0.60;;;;;;;3.93;100.00;99050.41;29395;222;63009;-57
2023/12/16 00:26:00;;;;;;;0.50;0.50;;;;;;;3.95;100.00;99052.88;29395;197;63004;-57
2023/12/16 00:26:32;;;;;;;0.60;0.60;;;;;;;3.95;100.00;99048.34;29395;196;63009;-65
2023/12/16 00:27:04;;;;;;;0.60;0.60;;;;;;;3.95;100.00;99053.72;29395;210;63004;-65
2023/12/16 00:27:38;;;;;;;0.60;0.60;;;;;;;3.95;100.00;99045.66;29395;208;63008;-66
2023/12/16 00:28:09;;;;;;;0.60;0.60;;;;;;;3.95;100.00;99048.34;29395;204;63004;-66
2023/12/16 00:28:43;;;;;;;0.60;0.60;;;;;;;3.97;100.00;99050.84;29395;206;63025;-58
2023/12/16 00:29:14;;;;;;;0.50;0.50;;;;;;;3.96;100.00;99047.31;29395;225;63005;-57
2023/12/16 00:29:45;;;;;;;0.60;0.60;;;;;;;3.95;100.00;99042.97;29395;264;63009;-58
2023/12/16 00:30:17;;;;;;;0.60;0.60;;;;;;;3.95;100.00;99042.97;29394;197;64009;-64
2023/12/16 00:30:48;;;;;;;0.60;0.60;;;;;;;3.96;100.00;99047.31;29395;204;63009;-57
2023/12/16 00:31:19;;;;;;;0.50;0.50;;;;;;;3.94;100.00;99049.38;29395;205;63005;-58
2023/12/16 00:31:52;;;;;;;0.60;0.60;;;;;;;3.93;100.00;99050.41;29395;315;63009;-57
2023/12/16 00:32:24;;;;;;;0.50;0.50;;;;;;;3.92;100.00;99054.09;29395;237;63004;-57
2023/12/16 00:32:55;;;;;;;0.50;0.50;;;;;;;3.91;100.00;99052.44;29395;210;63009;-57
2023/12/16 00:33:26;;;;;;;0.55;0.55;;;;;;;3.89;100.00;99054.50;29395;197;63004;-65
2023/12/16 00:33:57;;;;;;;0.60;0.60;;;;;;;3.91;100.00;99048.94;29395;242;63009;-65
2023/12/16 00:34:29;;;;;;;0.60;0.60;;;;;;;3.90;100.00;99049.97;29395;218;63004;-57
2023/12/16 00:35:01;;;;;;;0.60;0.60;;;;;;;3.90;100.00;99047.28;29395;245;63008;-58
2023/12/16 00:35:33;;;;;;;0.70;0.70;;;;;;;3.90;100.00;99040.03;29394;232;64018;-58
2023/12/16 00:36:06;;;;;;;0.50;0.50;;;;;;;3.92;100.00;99054.09;29395;198;63009;-59
2023/12/16 00:36:41;;;;;;;0.50;0.50;;;;;;;3.93;100.00;99050.41;29395;255;63005;-57
2023/12/16 00:37:12;;;;;;;3.33;3.22;;;;;;;3.93;100.00;99052.25;29395;221;63014;-66
2023/12/16 00:37:44;;;;;;;0.50;0.50;;;;;;;3.96;100.00;99057.22;29395;277;63005;-58
2023/12/16 00:38:15;;;;;;;0.50;0.50;;;;;;;3.98;100.00;99056.00;29395;218;63009;-57
2023/12/16 00:38:46;;;;;;;0.60;0.60;;;;;;;4.01;100.00;99055.63;29395;235;63005;-58
2023/12/16 00:39:18;;;;;;;0.50;0.50;;;;;;;4.01;100.00;99052.94;29395;236;63009;-64
2023/12/16 00:39:49;;;;;;;0.60;0.60;;;;;;;4.02;100.00;99062.66;29395;343;63005;-65
2023/12/16 00:40:20;;;;;;;0.60;0.60;;;;;;;4.03;100.00;99050.88;29395;199;63009;-65
2023/12/16 00:40:52;;;;;;;0.60;0.60;;;;;;;4.06;100.00;99054.19;29394;208;64022;-58
2023/12/16 00:41:23;;;;;;;0.60;0.60;;;;;;;4.04;100.00;99057.91;29395;202;63009;-57
2023/12/16 00:41:54;;;;;;;0.50;0.50;;;;;;;4.06;100.00;99054.19;29395;214;63004;-58
2023/12/16 00:42:26;;;;;;;0.50;0.50;;;;;;;4.06;100.00;99048.81;29395;227;63009;-65
2023/12/16 00:42:58;;;;;;;0.60;0.60;;;;;;;4.06;100.00;99054.19;29395;225;63004;-58
2023/12/16 00:43:30;;;;;;;0.60;0.60;;;;;;;4.06;100.00;99043.44;29395;221;63014;-57
2023/12/16 00:44:01;;;;;;;0.60;0.60;;;;;;;4.08;100.00;99050.28;29395;234;63005;-64
2023/12/16 00:44:33;;;;;;;0.50;0.50;;;;;;;4.07;100.00;99047.78;29395;245;63009;-57
2023/12/16 00:45:06;;;;;;;0.60;0.60;;;;;;;4.08;100.00;99052.97;29395;209;63005;-57
2023/12/16 00:45:38;;;;;;;0.60;0.60;;;;;;;4.10;100.00;99044.72;29395;259;63009;-65
2023/12/16 00:46:10;;;;;;;0.50;0.50;;;;;;;4.11;100.00;99057.94;29394;277;64009;-64
2023/12/16 00:46:42;;;;;;;0.50;0.50;;;;;;;4.12;100.00;99054.25;29395;211;63009;-57
2023/12/16 00:47:13;;;;;;;0.60;0.60;;;;;;;4.13;100.00;99055.06;29395;209;63005;-64
2023/12/16 00:47:45;;;;;;;0.50;0.50;;;;;;;4.12;100.00;99056.09;29395;227;63009;-58
2023/12/16 00:48:16;;;;;;;0.60;0.60;;;;;;;4.12;100.00;99061.47;29395;222;63004;-58
2023/12/16 00:48:50;;;;;;;0.50;0.50;;;;;;;4.12;100.00;99058.78;29395;221;63009;-64
2023/12/16 00:49:21;;;;;;;0.60;0.60;;;;;;;4.11;100.00;99062.50;29395;233;63011;-59
2023/12/16 00:49:52;;;;;;;0.60;0.60;;;;;;;4.11;100.00;99057.13;29395;293;63016;-57
2023/12/16 00:50:24;;;;;;;0.52;0.52;;;;;;;4.11;100.00;99062.50;29395;276;63004;-64
2023/12/16 00:50:56;;;;;;;0.52;0.52;;;;;;;4.11;100.00;99057.13;29395;210;63009;-57
2023/12/16 00:51:28;;;;;;;0.60;0.60;;;;;;;4.10;100.00;99067.03;29394;311;64009;-59
2023/12/16 00:52:03;;;;;;;0.60;0.60;;;;;;;4.11;100.00;99059.81;29395;219;63015;-57
2023/12/16 00:52:34;;;;;;;0.50;0.50;;;;;;;4.12;100.00;99064.16;29395;287;63005;-57
2023/12/16 00:53:06;;;;;;;0.55;0.55;;;;;;;4.11;100.00;99063.31;29395;274;63009;-57
2023/12/16 00:53:37;;;;;;;0.52;0.52;;;;;;;4.12;100.00;99072.22;29395;266;63005;-63
2023/12/16 00:54:09;;;;;;;0.60;0.60;;;;;;;4.11;100.00;99063.31;29395;208;63009;-57
2023/12/16 00:54:40;;;;;;;0.60;0.60;;;;;;;4.12;100.00;99064.97;29395;207;63005;-57
2023/12/16 00:55:15;;;;;;;0.60;0.60;;;;;;;4.11;100.00;99060.62;29395;207;63009;-57
2023/12/16 00:55:46;;;;;;;0.50;0.50;;;;;;;4.13;100.00;99065.81;29395;233;63004;-65
2023/12/16 00:56:17;;;;;;;2.10;2.10;;;;;;;4.12;100.00;99064.16;29395;223;63009;-57
2023/12/16 00:56:50;;;;;;;0.60;0.60;;;;;;;4.12;100.00;99058.78;29394;265;64009;-57
2023/12/16 00:57:21;;;;;;;0.60;0.60;;;;;;;4.12;100.00;99064.16;29395;261;63015;-64
2023/12/16 00:57:56;;;;;;;0.60;0.60;;;;;;;4.12;100.00;99064.97;29395;211;63004;-66
2023/12/16 00:58:27;;;;;;;0.50;0.50;;;;;;;4.13;100.00;99071.19;29395;202;63009;-57
2023/12/16 00:58:58;;;;;;;0.60;0.60;;;;;;;4.12;100.00;99064.97;29395;227;63005;-57
2023/12/16 00:59:29;;;;;;;0.60;0.60;;;;;;;4.12;100.00;99058.78;29395;225;63009;-65
2023/12/16 01:00:01;;;;;;;0.60;0.60;;;;;;;4.11;100.00;99063.31;29395;282;63005;-57
2023/12/16 01:00:35;;;;;;;0.60;0.60;;;;;;;4.13;100.00;99071.19;29395;203;63009;-63
2023/12/16 01:01:06;;;;;;;0.60;0.60;;;;;;;4.13;100.00;99072.00;29395;206;63005;-64
2023/12/16 01:01:38;;;;;;;0.52;0.52;;;;;;;4.13;100.00;99071.19;29395;222;63009;-59
2023/12/16 01:02:09;;;;;;;0.60;0.60;;;;;;;4.12;100.00;99074.91;29394;225;64009;-58
2023/12/16 01:02:40;;;;;;;0.60;0.60;;;;;;;4.12;100.00;99069.53;29395;252;63009;-59
2023/12/16 01:03:12;;;;;;;0.60;0.60;;;;;;;4.12;100.00;99074.91;29395;220;63004;-59
2023/12/16 01:03:43;;;;;;;0.60;0.60;;;;;;;4.12;100.00;99080.28;29395;203;63009;-65
2023/12/16 01:04:15;;;;;;;0.60;0.60;;;;;;;4.12;100.00;99080.28;29395;216;63004;-65
2023/12/16 01:04:46;;;;;;;1.77;1.77;;;;;;;4.11;100.00;99074.06;29395;232;63008;-58
2023/12/16 01:05:18;;;;;;;0.60;0.60;;;;;;;4.12;100.00;99075.72;29395;203;63005;-64
2023/12/16 01:05:49;;;;;;;0.60;0.60;;;;;;;4.12;100.00;99075.72;29395;252;63008;-57
2023/12/16 01:06:20;;;;;;;0.57;0.57;;;;;;;4.14;100.00;99079.06;29395;214;63005;-59
2023/12/16 01:06:53;;;;;;;0.60;0.60;;;;;;;4.13;100.00;99084.63;29395;319;63009;-57
2023/12/16 01:07:24;;;;;;;0.60;0.60;;;;;;;4.10;100.00;99080.47;29394;244;64009;-65
2023/12/16 01:07:57;;;;;;;0.60;0.60;;;;;;;4.10;100.00;99082.31;29394;211;64013;-64
2023/12/16 01:08:28;;;;;;;0.60;0.60;;;;;;;4.08;100.00;99087.91;29395;214;63005;-66
2023/12/16 01:08:59;;;;;;;0.60;0.60;;;;;;;4.05;100.00;99088.28;29395;231;63020;-58
2023/12/16 01:09:30;;;;;;;0.60;0.60;;;;;;;4.04;100.00;99090.16;29395;208;63004;-64
2023/12/16 01:10:02;;;;;;;0.60;0.60;;;;;;;4.05;100.00;99090.97;29395;265;63009;-64
2023/12/16 01:10:33;;;;;;;0.60;0.60;;;;;;;4.04;100.00;99092.84;29395;224;63004;-64
2023/12/16 01:11:05;;;;;;;0.60;0.60;;;;;;;4.03;100.00;99093.84;29395;296;63009;-66
2023/12/16 01:11:37;;;;;;;0.60;0.60;;;;;;;4.03;100.00;99093.84;29395;274;63000;-64
2023/12/16 01:12:09;;;;;;;0.60;0.60;;;;;;;4.04;100.00;99095.53;29395;237;63004;-66
2023/12/16 01:12:41;;;;;;;0.60;0.60;;;;;;;4.04;100.00;99102.75;29395;197;63008;-66
2023/12/16 01:13:14;;;;;;;0.60;0.60;;;;;;;4.04;100.00;99090.16;29394;284;64014;-66
2023/12/16 01:13:45;;;;;;;0.60;0.60;;;;;;;4.04;100.00;99095.53;29395;199;63014;-66
2023/12/16 01:14:16;;;;;;;0.60;0.60;;;;;;;4.03;100.00;99093.84;29395;203;63009;-58
2023/12/16 01:14:47;;;;;;;0.60;0.60;;;;;;;4.05;100.00;99090.97;29395;205;63005;-58
2023/12/16 01:15:19;;;;;;;0.60;0.60;;;;;;;4.06;100.00;99105.25;29395;249;63005;-57
2023/12/16 01:15:50;;;;;;;0.60;0.60;;;;;;;4.06;100.00;99103.38;29395;197;63005;-58
2023/12/16 01:16:24;;;;;;;0.60;0.60;;;;;;;4.07;100.00;99098.84;29395;202;63009;-58
2023/12/16 01:16:55;;;;;;;0.60;0.60;;;;;;;4.06;100.00;99097.19;29395;254;63004;-65
2023/12/16 01:17:27;;;;;;;0.60;0.60;;;;;;;4.07;100.00;99104.22;29395;237;63004;-64
2023/12/16 01:17:58;;;;;;;0.60;0.60;;;;;;;4.06;100.00;99103.38;29395;230;63004;-58
2023/12/16 01:18:30;;;;;;;0.60;0.60;;;;;;;4.07;100.00;99098.84;29394;239;64013;-64
2023/12/16 01:19:01;;;;;;;0.60;0.60;;;;;;;4.06;100.00;99106.06;29395;227;63007;-65
2023/12/16 01:19:33;;;;;;;0.60;0.60;;;;;;;4.07;100.00;99098.84;29395;215;63008;-65
2023/12/16 01:20:06;;;;;;;0.60;0.60;;;;;;;4.06;100.00;99094.50;29395;202;63004;-64
2023/12/16 01:20:37;;;;;;;0.60;0.60;;;;;;;4.07;100.00;99104.22;29394;212;64014;-57
2023/12/16 01:21:09;;;;;;;0.60;0.60;;;;;;;4.07;100.00;99104.22;29395;198;63005;-65
2023/12/16 01:21:41;;;;;;;0.60;0.60;;;;;;;4.04;100.00;99105.44;29395;239;63014;-57
2023/12/16 01:22:13;;;;;;;0.62;0.62;;;;;;;4.05;100.00;99107.09;29395;240;63005;-65
2023/12/16 01:22:44;;;;;;;0.60;0.60;;;;;;;4.06;100.00;99105.25;29395;205;63010;-65
2023/12/16 01:23:15;;;;;;;0.60;0.60;;;;;;;4.06;100.00;99102.56;29395;211;63005;-64
2023/12/16 01:23:46;;;;;;;0.60;0.60;;;;;;;4.07;100.00;99104.22;29395;235;63009;-66
2023/12/16 01:24:17;;;;;;;0.60;0.60;;;;;;;4.07;100.00;99098.84;29395;296;63005;-57
2023/12/16 01:24:49;;;;;;;0.60;0.60;;;;;;;4.08;100.00;99100.50;29395;325;63009;-57
2023/12/16 01:25:20;;;;;;;0.60;0.60;;;;;;;4.09;100.00;99103.00;29395;233;63004;-56
2023/12/16 01:25:52;;;;;;;0.60;0.60;;;;;;;4.11;100.00;99100.09;29394;244;64013;-65
2023/12/16 01:26:23;;;;;;;0.50;0.50;;;;;;;4.12;100.00;99097.22;29395;218;63004;-65
2023/12/16 01:26:55;;;;;;;0.60;0.60;;;;;;;4.13;100.00;99098.06;29395;234;63008;-56
2023/12/16 01:27:26;;;;;;;0.60;0.60;;;;;;;4.15;100.00;99096.00;29395;209;63004;-64
2023/12/16 01:27:58;;;;;;;0.50;0.50;;;;;;;4.16;100.00;99100.34;29395;289;63009;-65
2023/12/16 01:28:30;;;;;;;0.50;0.50;;;;;;;4.16;100.00;99101.16;29394;224;64005;-65
2023/12/16 01:29:01;;;;;;;0.60;0.60;;;;;;;4.16;100.00;99098.47;29395;220;63009;-64
2023/12/16 01:29:32;;;;;;;0.60;0.60;;;;;;;4.16;100.00;99092.28;29395;231;63005;-63
2023/12/16 01:30:05;;;;;;;0.60;0.60;;;;;;;4.16;100.00;99100.34;29395;215;63009;-57
2023/12/16 01:30:37;;;;;;;0.50;0.50;;;;;;;4.15;100.00;99096.84;29394;202;64009;-63
2023/12/16 01:31:08;;;;;;;0.60;0.60;;;;;;;4.16;100.00;99103.03;29395;206;63013;-64
2023/12/16 01:31:43;;;;;;;0.60;0.60;;;;;;;4.16;100.00;99097.66;29395;276;63015;-64
2023/12/16 01:32:14;;;;;;;0.60;0.60;;;;;;;4.18;100.00;99098.25;29395;222;63009;-63
2023/12/16 01:32:49;;;;;;;0.55;0.55;;;;;;;4.20;100.00;99098.91;29395;233;63004;-66
2023/12/16 01:33:20;;;;;;;0.60;0.60;;;;;;;4.21;100.00;99104.06;29395;226;63009;-57
2023/12/16 01:33:52;;;;;;;0.60;0.60;;;;;;;4.21;100.00;99103.25;29395;270;63004;-65
2023/12/16 01:34:23;;;;;;;0.60;0.60;;;;;;;4.20;100.00;99106.97;29395;245;63009;-66
2023/12/16 01:34:55;;;;;;;0.60;0.60;;;;;;;4.18;100.00;99106.31;29395;209;63004;-58
2023/12/16 01:35:26;;;;;;;0.60;0.60;;;;;;;4.14;100.00;99102.41;29395;212;63009;-64
2023/12/16 01:35:58;;;;;;;0.50;0.50;;;;;;;4.11;100.00;99106.31;29394;239;64009;-64
2023/12/16 01:36:29;;;;;;;0.60;0.60;;;;;;;4.11;100.00;99110.84;29395;367;63026;-64
2023/12/16 01:37:03;;;;;;;0.60;0.60;;;;;;;4.11;100.00;99110.84;29395;202;63005;-65
2023/12/16 01:37:34;;;;;;;0.60;0.60;;;;;;;4.09;100.00;99104.84;29395;202;63009;-63
2023/12/16 01:38:05;;;;;;;0.60;0.60;;;;;;;4.10;100.00;99106.50;29395;233;63005;-65
2023/12/16 01:38:36;;;;;;;0.60;0.60;;;;;;;4.10;100.00;99107.34;29395;216;63009;-58
2023/12/16 01:39:11;;;;;;;0.60;0.60;;;;;;;4.11;100.00;99105.47;29395;225;63005;-63
2023/12/16 01:39:42;;;;;;;0.60;0.60;;;;;;;4.08;100.00;99095.97;29394;229;64009;-63
2023/12/16 01:40:13;;;;;;;0.60;0.60;;;;;;;4.10;100.00;99096.59;29395;203;63008;-64
2023/12/16 01:40:45;;;;;;;0.60;0.60;;;;;;;4.09;100.00;99102.16;29395;216;63009;-57
2023/12/16 01:41:16;;;;;;;0.80;0.80;;;;;;;4.09;100.00;99097.62;29394;233;64009;-57
2023/12/16 01:41:47;;;;;;;0.60;0.60;;;;;;;4.11;100.00;99092.06;29395;246;63009;-56
2023/12/16 01:42:18;;;;;;;0.57;0.57;;;;;;;4.10;100.00;99087.69;29395;339;63004;-65
2023/12/16 01:42:54;;;;;;;0.60;0.60;;;;;;;4.11;100.00;99089.34;29394;254;64008;-65
2023/12/16 01:43:26;;;;;;;0.60;0.60;;;;;;;4.10;100.00;99082.31;29395;199;63005;-66
2023/12/16 01:43:58;;;;;;;0.60;0.60;;;;;;;4.11;100.00;99090.19;29395;225;63009;-65
2023/12/16 01:44:30;;;;;;;0.55;0.55;;;;;;;4.11;100.00;99084.00;29395;243;63005;-65
2023/12/16 01:45:03;;;;;;;0.60;0.60;;;;;;;4.12;100.00;99091.03;29395;232;63024;-65
2023/12/16 01:45:35;;;;;;;0.60;0.60;;;;;;;4.11;100.00;99089.34;29395;235;63005;-57
2023/12/16 01:46:07;;;;;;;0.50;0.50;;;;;;;4.11;100.00;99089.34;29395;213;63009;-65
2023/12/16 01:46:39;;;;;;;0.50;0.50;;;;;;;4.10;100.00;99090.38;29394;228;64009;-66
2023/12/16 01:47:11;;;;;;;0.60;0.60;;;;;;;4.10;100.00;99087.69;29395;243;63009;-65
2023/12/16 01:47:42;;;;;;;0.60;0.60;;;;;;;4.09;100.00;99091.41;29395;214;63004;-57
2023/12/16 01:48:15;;;;;;;0.60;0.60;;;;;;;4.09;100.00;99097.62;29395;239;63009;-63
2023/12/16 01:48:46;;;;;;;0.50;0.50;;;;;;;4.09;100.00;99091.41;29394;208;64009;-64
2023/12/16 01:49:18;;;;;;;0.60;0.60;;;;;;;4.08;100.00;99087.91;29395;221;63009;-56
2023/12/16 01:49:49;;;;;;;0.50;0.50;;;;;;;4.08;100.00;99092.44;29395;217;63004;-64
2023/12/16 01:50:23;;;;;;;0.50;0.50;;;;;;;4.07;100.00;99085.41;29395;228;63008;-66
2023/12/16 01:50:55;;;;;;;0.50;0.50;;;;;;;4.06;100.00;99081.06;29395;209;63005;-57
2023/12/16 01:51:28;;;;;;;0.50;0.50;;;;;;;4.04;100.00;99079.41;29395;197;63009;-58
2023/12/16 01:51:59;;;;;;;0.50;0.50;;;;;;;4.05;100.00;99080.22;29395;216;63005;-66
2023/12/16 01:52:31;;;;;;;0.50;0.50;;;;;;;4.06;100.00;99086.44;29395;227;63009;-63
2023/12/16 01:53:06;;;;;;;0.60;0.60;;;;;;;4.04;100.00;99082.09;29395;249;63005;-64
2023/12/16 01:53:39;;;;;;;0.50;0.50;;;;;;;4.03;100.00;99085.81;29395;207;63009;-66
2023/12/16 01:54:12;;;;;;;0.60;0.60;;;;;;;4.03;100.00;99080.44;29394;336;64009;-65
2023/12/16 01:54:44;;;;;;;0.60;0.60;;;;;;;4.03;100.00;99084.97;29395;303;63009;-65
2023/12/16 01:55:15;;;;;;;0.60;0.60;;;;;;;4.03;100.00;99083.12;29395;208;63004;-65
2023/12/16 01:55:47;;;;;;;0.60;0.60;;;;;;;4.02;100.00;99083.31;29395;224;63014;-57
2023/12/16 01:56:21;;;;;;;0.50;0.50;;;;;;;4.02;100.00;99076.09;29395;215;63004;-64
2023/12/16 01:56:57;;;;;;;0.60;0.60;;;;;;;4.02;100.00;99084.13;29395;202;63009;-65
2023/12/16 01:57:29;;;;;;;0.50;0.50;;;;;;;4.03;100.00;99088.47;29395;271;63004;-57
2023/12/16 01:58:01;;;;;;;0.60;0.60;;;;;;;4.02;100.00;99086.81;29395;224;63009;-65
2023/12/16 01:58:34;;;;;;;0.60;0.60;;;;;;;4.02;100.00;99081.47;29395;287;63005;-65
2023/12/16 01:59:07;;;;;;;0.60;0.60;;;;;;;4.03;100.00;99080.44;29395;240;63009;-66
2023/12/16 01:59:39;;;;;;;0.55;0.55;;;;;;;4.07;100.00;99086.25;29394;260;64009;-65
2023/12/16 02:00:11;;;;;;;0.60;0.60;;;;;;;4.07;100.00;99080.03;29395;206;63016;-64
2023/12/16 02:00:44;;;;;;;0.60;0.60;;;;;;;4.06;100.00;99086.44;29395;221;63005;-64
2023/12/16 02:01:17;;;;;;;0.60;0.60;;;;;;;4.03;100.00;99088.47;29395;266;63009;-65
2023/12/16 02:01:48;;;;;;;0.60;0.60;;;;;;;4.02;100.00;99081.47;29395;198;63004;-65
2023/12/16 02:02:22;;;;;;;0.60;0.60;;;;;;;4.02;100.00;99086.81;29395;222;63009;-64
2023/12/16 02:02:53;;;;;;;0.50;0.50;;;;;;;4.01;100.00;99082.47;29395;214;63004;-56
2023/12/16 02:03:28;;;;;;;0.50;0.50;;;;;;;4.02;100.00;99086.81;29395;205;63009;-65
2023/12/16 02:04:00;;;;;;;0.50;0.50;;;;;;;4.01;100.00;99084.34;29395;310;63004;-64
2023/12/16 02:04:34;;;;;;;0.60;0.60;;;;;;;4.00;100.00;99080.81;29395;206;63015;-64
2023/12/16 02:05:07;;;;;;;0.50;0.50;;;;;;;4.00;100.00;99086.19;29394;211;64008;-65
2023/12/16 02:05:39;;;;;;;0.60;0.60;;;;;;;4.00;100.00;99086.19;29395;259;63009;-64
2023/12/16 02:06:11;;;;;;;0.60;0.60;;;;;;;4.01;100.00;99090.53;29395;365;63005;-63
2023/12/16 02:06:42;;;;;;;0.60;0.60;;;;;;;4.01;100.00;99087.03;29395;234;63005;-65
2023/12/16 02:07:13;;;;;;;0.50;0.50;;;;;;;4.01;100.00;99090.53;29395;224;63005;-65
2023/12/16 02:07:44;;;;;;;0.60;0.60;;;;;;;4.02;100.00;99092.19;29395;264;63009;-62
2023/12/16 02:08:16;;;;;;;0.60;0.60;;;;;;;4.03;100.00;99093.84;29395;249;63005;-64
2023/12/16 02:08:47;;;;;;;0.50;0.50;;;;;;;4.02;100.00;99092.19;29395;263;63009;-65
2023/12/16 02:09:20;;;;;;;0.60;0.60;;;;;;;4.02;100.00;99086.81;29395;205;63004;-64
2023/12/16 02:09:51;;;;;;;0.60;0.60;;;;;;;4.03;100.00;99091.16;29395;267;63009;-65
2023/12/16 02:10:23;;;;;;;0.60;0.60;;;;;;;4.03;100.00;99095.72;29394;217;64009;-65
2023/12/16 02:10:54;;;;;;;0.60;0.60;;;;;;;4.03;100.00;99095.72;29395;225;63010;-64
2023/12/16 02:11:25;;;;;;;0.57;0.57;;;;;;;4.03;100.00;99096.53;29395;270;63004;-64
2023/12/16 02:12:00;;;;;;;0.60;0.60;;;;;;;4.02;100.00;99097.56;29395;304;63008;-63
2023/12/16 02:12:34;;;;;;;0.60;0.60;;;;;;;4.02;100.00;99100.25;29395;227;63005;-64
2023/12/16 02:13:06;;;;;;;0.60;0.60;;;;;;;4.02;100.00;99096.75;29395;206;63009;-64
2023/12/16 02:13:37;;;;;;;0.60;0.60;;;;;;;4.02;100.00;99096.75;29395;207;63005;-63
2023/12/16 02:14:09;;;;;;;0.50;0.50;;;;;;;4.02;100.00;99100.25;29395;209;63009;-65
2023/12/16 02:14:40;;;;;;;0.60;0.60;;;;;;;4.01;100.00;99095.91;29395;283;63005;-64
2023/12/16 02:15:11;;;;;;;0.60;0.60;;;;;;;4.00;100.00;99099.63;29395;256;63009;-57
2023/12/16 02:15:43;;;;;;;0.50;0.50;;;;;;;4.00;100.00;99099.63;29394;203;64009;-63
2023/12/16 02:16:14;;;;;;;0.50;0.50;;;;;;;4.01;100.00;99101.28;29395;230;63009;-66
2023/12/16 02:16:46;;;;;;;0.70;0.70;;;;;;;4.00;100.00;99104.16;29395;226;63004;-65
2023/12/16 02:17:18;;;;;;;0.60;0.60;;;;;;;3.99;100.00;99097.12;29395;221;63009;-65
2023/12/16 02:17:49;;;;;;;0.60;0.60;;;;;;;3.99;100.00;99097.97;29395;208;63004;-65
2023/12/16 02:18:20;;;;;;;0.50;0.50;;;;;;;3.99;100.00;99094.44;29395;239;63009;-64
2023/12/16 02:18:52;;;;;;;0.60;0.60;;;;;;;3.99;100.00;99100.66;29395;222;63004;-57
2023/12/16 02:19:25;;;;;;;0.60;0.60;;;;;;;3.99;100.00;99092.59;29395;225;63008;-58
2023/12/16 02:19:57;;;;;;;0.60;0.60;;;;;;;3.98;100.00;99090.94;29395;261;63010;-63
2023/12/16 02:20:28;;;;;;;0.50;0.50;;;;;;;3.99;100.00;99089.91;29395;247;63016;-65
2023/12/16 02:20:59;;;;;;;0.60;0.60;;;;;;;3.99;100.00;99089.91;29394;253;64009;-64
2023/12/16 02:21:31;;;;;;;0.60;0.60;;;;;;;3.99;100.00;99089.06;29395;227;63009;-65
2023/12/16 02:22:02;;;;;;;0.60;0.60;;;;;;;3.99;100.00;99081.00;29395;272;63005;-57
2023/12/16 02:22:34;;;;;;;0.60;0.60;;;;;;;3.98;100.00;99080.19;29395;233;63012;-64
2023/12/16 02:23:08;;;;;;;0.50;0.50;;;;;;;3.97;100.00;99091.97;29395;319;63005;-57
2023/12/16 02:23:39;;;;;;;0.60;0.60;;;;;;;3.98;100.00;99096.31;29395;263;63009;-65
2023/12/16 02:24:12;;;;;;;0.55;0.55;;;;;;;3.97;100.00;99094.63;29395;217;63004;-63
2023/12/16 02:24:45;;;;;;;0.60;0.60;;;;;;;3.97;100.00;99091.12;29395;199;63009;-63
2023/12/16 02:25:17;;;;;;;0.55;0.55;;;;;;;3.95;100.00;99102.06;29395;260;63004;-64
2023/12/16 02:25:49;;;;;;;0.50;0.50;;;;;;;3.95;100.00;99099.38;29395;203;63009;-66
2023/12/16 02:26:20;;;;;;;3.92;3.83;;;;;;;3.95;100.00;99102.06;29394;197;64009;-65
2023/12/16 02:26:51;;;;;;;0.60;0.60;;;;;;;3.96;100.00;99101.03;29395;247;63008;-64
2023/12/16 02:27:23;;;;;;;0.50;0.50;;;;;;;3.95;100.00;99101.22;29395;262;63005;-64
2023/12/16 02:27:54;;;;;;;0.60;0.60;;;;;;;3.92;100.00;99107.81;29395;233;63009;-57
2023/12/16 02:28:25;;;;;;;0.60;0.60;;;;;;;3.92;100.00;99102.47;29395;253;63009;-64
2023/12/16 02:28:56;;;;;;;0.50;0.50;;;;;;;3.92;100.00;99102.47;29395;261;63009;-57
2023/12/16 02:29:27;;;;;;;0.50;0.50;;;;;;;3.92;100.00;99097.09;29395;228;63013;-58
2023/12/16 02:29:59;;;;;;;0.60;0.60;;;;;;;3.92;100.00;99099.78;29395;293;63009;-65
2023/12/16 02:30:31;;;;;;;0.50;0.50;;;;;;;3.91;100.00;99103.47;29395;222;63005;-64
2023/12/16 02:31:04;;;;;;;0.60;0.60;;;;;;;3.91;100.00;99105.34;29395;196;63005;-65
2023/12/16 02:31:35;;;;;;;0.60;0.60;;;;;;;3.90;100.00;99101.81;29394;210;64009;-57